createdAt,value
2022-07-30T00:01:23.576Z,4.33
2022-07-30T00:03:50.056Z,4.42
2022-07-30T00:06:18.113Z,4.40
2022-07-30T00:08:44.532Z,4.39
2022-07-30T00:11:10.945Z,4.40
2022-07-30T00:13:37.371Z,4.69
2022-07-30T00:16:03.779Z,4.43
2022-07-30T00:18:30.247Z,4.90
2022-07-30T00:20:56.892Z,4.56
2022-07-30T00:23:23.300Z,4.78
2022-07-30T00:25:49.715Z,4.70
2022-07-30T00:28:16.113Z,4.65
2022-07-30T00:30:42.551Z,4.61
2022-07-30T00:33:08.988Z,4.74
2022-07-30T00:35:35.392Z,4.60
2022-07-30T00:38:01.809Z,4.57
2022-07-30T00:40:28.227Z,4.67
2022-07-30T00:42:54.642Z,4.67
2022-07-30T00:45:21.068Z,4.64
2022-07-30T00:47:47.467Z,4.86
2022-07-30T00:50:13.877Z,4.62
2022-07-30T00:52:40.301Z,4.55
2022-07-30T00:55:06.712Z,4.62
2022-07-30T00:57:33.120Z,4.73
2022-07-30T01:00:01.243Z,4.76
2022-07-30T01:02:27.704Z,4.75
2022-07-30T01:04:54.129Z,4.48
2022-07-30T01:07:20.539Z,4.37
2022-07-30T01:09:50.391Z,4.65
2022-07-30T01:12:16.811Z,4.68
2022-07-30T01:14:43.237Z,4.51
2022-07-30T01:17:09.652Z,4.71
2022-07-30T01:19:36.153Z,4.77
2022-07-30T01:22:02.548Z,4.81
2022-07-30T01:24:28.964Z,4.44
2022-07-30T01:26:55.381Z,4.64
2022-07-30T01:29:21.780Z,4.63
2022-07-30T01:31:48.248Z,4.48
2022-07-30T01:34:14.710Z,4.71
2022-07-30T01:36:41.125Z,4.57
2022-07-30T01:39:07.537Z,4.89
2022-07-30T01:41:33.940Z,4.65
2022-07-30T01:44:00.362Z,4.36
2022-07-30T01:46:26.842Z,4.68
2022-07-30T01:48:53.318Z,4.75
2022-07-30T01:51:19.759Z,4.67
2022-07-30T01:53:46.167Z,4.87
2022-07-30T01:56:12.561Z,4.87
2022-07-30T01:58:43.148Z,4.73
2022-07-30T02:01:09.653Z,4.76
2022-07-30T02:03:36.176Z,4.82
2022-07-30T02:06:02.593Z,4.90
2022-07-30T02:08:29.012Z,4.70
2022-07-30T02:10:55.420Z,4.65
2022-07-30T02:13:21.822Z,4.87
2022-07-30T02:15:48.225Z,4.89
2022-07-30T02:18:14.647Z,4.98
2022-07-30T02:20:41.046Z,5.06
2022-07-30T02:23:07.467Z,4.56
2022-07-30T02:25:33.877Z,4.76
2022-07-30T02:28:00.382Z,4.78
2022-07-30T02:30:26.795Z,4.84
2022-07-30T02:32:53.203Z,4.79
2022-07-30T02:35:19.608Z,4.67
2022-07-30T02:37:46.100Z,5.05
2022-07-30T02:40:12.505Z,5.05
2022-07-30T02:42:38.910Z,4.73
2022-07-30T02:45:05.330Z,4.79
2022-07-30T02:47:31.785Z,4.68
2022-07-30T02:49:58.204Z,4.83
2022-07-30T02:52:24.619Z,5.00
2022-07-30T02:54:51.031Z,4.68
2022-07-30T02:57:17.451Z,4.78
2022-07-30T02:59:43.864Z,5.08
2022-07-30T03:02:10.340Z,5.15
2022-07-30T03:04:36.822Z,4.77
2022-07-30T03:07:07.936Z,4.89
2022-07-30T03:09:51.460Z,4.66
2022-07-30T03:12:18.981Z,4.64
2022-07-30T03:14:45.413Z,4.80
2022-07-30T03:17:11.815Z,4.70
2022-07-30T03:19:38.212Z,4.93
2022-07-30T03:22:04.644Z,4.98
2022-07-30T03:24:31.049Z,4.87
2022-07-30T03:26:57.605Z,4.62
2022-07-30T03:29:24.156Z,4.84
2022-07-30T03:31:50.681Z,4.73
2022-07-30T03:34:17.121Z,4.64
2022-07-30T03:36:44.386Z,4.53
2022-07-30T03:39:10.913Z,4.97
2022-07-30T03:41:37.337Z,4.89
2022-07-30T03:44:04.951Z,4.95
2022-07-30T03:46:31.405Z,4.63
2022-07-30T03:48:57.892Z,4.43
2022-07-30T03:51:24.343Z,4.40
2022-07-30T03:53:50.761Z,4.39
2022-07-30T03:56:17.203Z,4.47
2022-07-30T03:58:43.620Z,4.61
2022-07-30T04:01:10.031Z,4.54
2022-07-30T04:03:36.493Z,4.71
2022-07-30T04:06:02.954Z,4.51
2022-07-30T04:08:29.359Z,4.51
2022-07-30T04:10:55.783Z,4.46
2022-07-30T04:13:22.190Z,4.43
2022-07-30T04:16:05.826Z,4.28
2022-07-30T04:18:35.008Z,4.13
2022-07-30T04:21:01.426Z,4.41
2022-07-30T04:23:27.836Z,4.39
2022-07-30T04:25:54.241Z,4.19
2022-07-30T04:28:20.649Z,4.14
2022-07-30T04:30:47.060Z,4.35
2022-07-30T04:33:13.470Z,4.17
2022-07-30T04:35:51.668Z,3.77
2022-07-30T04:38:18.559Z,4.19
2022-07-30T04:40:44.974Z,4.24
2022-07-30T04:43:11.371Z,4.31
2022-07-30T04:45:37.777Z,4.26
2022-07-30T04:48:04.208Z,4.14
2022-07-30T04:50:30.615Z,4.12
2022-07-30T04:52:57.029Z,4.08
2022-07-30T04:55:23.442Z,4.17
2022-07-30T04:57:49.886Z,4.26
2022-07-30T05:00:16.292Z,4.17
2022-07-30T05:02:42.697Z,4.24
2022-07-30T05:05:09.148Z,4.02
2022-07-30T05:07:35.586Z,4.11
2022-07-30T05:10:01.988Z,4.13
2022-07-30T05:12:28.396Z,4.22
2022-07-30T05:14:54.822Z,3.92
2022-07-30T05:17:21.229Z,4.42
2022-07-30T05:19:47.638Z,4.06
2022-07-30T05:22:14.790Z,4.34
2022-07-30T05:24:41.208Z,4.02
2022-07-30T05:27:07.608Z,4.09
2022-07-30T05:29:34.015Z,4.02
2022-07-30T05:32:02.556Z,4.16
2022-07-30T05:34:29.968Z,3.92
2022-07-30T05:36:56.374Z,4.10
2022-07-30T05:39:22.817Z,3.84
2022-07-30T05:41:49.220Z,3.84
2022-07-30T05:44:15.627Z,3.94
2022-07-30T05:46:42.182Z,3.94
2022-07-30T05:49:08.692Z,3.75
2022-07-30T05:51:35.137Z,4.14
2022-07-30T05:54:01.548Z,4.08
2022-07-30T05:56:27.953Z,3.91
2022-07-30T05:58:54.352Z,4.07
2022-07-30T06:01:20.824Z,4.00
2022-07-30T06:03:47.276Z,4.10
2022-07-30T06:06:13.682Z,4.08
2022-07-30T06:08:40.098Z,4.17
2022-07-30T06:11:06.516Z,4.46
2022-07-30T06:13:32.915Z,4.05
2022-07-30T06:15:59.377Z,4.14
2022-07-30T06:18:25.839Z,4.10
2022-07-30T06:20:52.458Z,4.03
2022-07-30T06:23:18.940Z,3.94
2022-07-30T06:25:45.351Z,4.08
2022-07-30T06:28:35.869Z,4.02
2022-07-30T06:30:58.234Z,4.23
2022-07-30T06:33:24.703Z,4.30
2022-07-30T06:35:51.115Z,4.26
2022-07-30T06:38:17.513Z,4.33
2022-07-30T06:40:43.942Z,4.22
2022-07-30T06:43:10.351Z,4.01
2022-07-30T06:45:36.763Z,4.13
2022-07-30T06:48:03.181Z,4.39
2022-07-30T06:50:29.595Z,4.45
2022-07-30T06:52:55.998Z,4.43
2022-07-30T06:55:22.388Z,4.34
2022-07-30T06:57:48.821Z,4.22
2022-07-30T07:00:15.224Z,4.04
2022-07-30T07:02:41.630Z,3.76
2022-07-30T07:05:08.041Z,3.80
2022-07-30T07:07:41.919Z,4.15
2022-07-30T07:10:10.794Z,4.04
2022-07-30T07:12:37.209Z,4.03
2022-07-30T07:15:03.627Z,4.01
2022-07-30T07:17:30.068Z,4.09
2022-07-30T07:19:59.782Z,4.37
2022-07-30T07:22:28.632Z,4.23
2022-07-30T07:24:55.045Z,4.22
2022-07-30T07:27:21.453Z,4.40
2022-07-30T07:30:00.985Z,4.34
2022-07-30T07:32:31.595Z,4.70
2022-07-30T07:34:57.998Z,4.68
2022-07-30T07:37:24.413Z,4.32
2022-07-30T07:39:50.808Z,4.26
2022-07-30T07:42:17.209Z,4.48
2022-07-30T07:44:43.616Z,4.49
2022-07-30T07:47:10.022Z,4.42
2022-07-30T07:49:36.436Z,4.25
2022-07-30T07:52:02.836Z,4.46
2022-07-30T07:54:29.231Z,4.48
2022-07-30T07:56:55.682Z,4.51
2022-07-30T07:59:22.098Z,4.56
2022-07-30T08:01:49.874Z,4.59
2022-07-30T08:04:16.430Z,4.41
2022-07-30T08:06:43.132Z,4.63
2022-07-30T08:09:09.630Z,4.63
2022-07-30T08:11:36.029Z,4.56
2022-07-30T08:14:02.521Z,4.54
2022-07-30T08:16:28.956Z,4.36
2022-07-30T08:18:55.422Z,4.50
2022-07-30T08:21:21.899Z,4.60
2022-07-30T08:23:48.308Z,4.42
2022-07-30T08:26:14.722Z,4.37
2022-07-30T08:28:41.129Z,4.49
2022-07-30T08:31:07.550Z,4.51
2022-07-30T08:33:34.006Z,4.73
2022-07-30T08:36:04.117Z,4.56
2022-07-30T08:38:35.410Z,4.66
2022-07-30T08:41:01.829Z,4.54
2022-07-30T08:43:28.230Z,4.45
2022-07-30T08:45:54.633Z,4.66
2022-07-30T08:48:21.031Z,4.57
2022-07-30T08:50:47.442Z,4.39
2022-07-30T08:53:13.857Z,4.66
2022-07-30T08:55:40.266Z,4.19
2022-07-30T08:58:06.687Z,4.14
2022-07-30T09:00:33.104Z,4.20
2022-07-30T09:02:59.500Z,4.39
2022-07-30T09:05:25.915Z,3.80
2022-07-30T09:07:52.341Z,3.58
2022-07-30T09:10:18.784Z,3.67
2022-07-30T09:12:45.236Z,3.97
2022-07-30T09:15:11.637Z,3.88
2022-07-30T09:17:38.045Z,3.67
2022-07-30T09:20:04.451Z,3.65
2022-07-30T09:22:30.958Z,3.75
2022-07-30T09:24:57.368Z,3.47
2022-07-30T09:27:23.760Z,3.27
2022-07-30T09:29:50.173Z,3.33
2022-07-30T09:32:16.586Z,3.38
2022-07-30T09:34:42.997Z,3.32
2022-07-30T09:37:09.410Z,3.32
2022-07-30T09:39:35.825Z,3.16
2022-07-30T09:42:02.537Z,3.39
2022-07-30T09:44:29.232Z,3.29
2022-07-30T09:46:55.630Z,3.15
2022-07-30T09:49:22.102Z,3.30
2022-07-30T09:51:56.251Z,3.39
2022-07-30T09:54:33.240Z,3.27
2022-07-30T09:57:00.802Z,3.53
2022-07-30T09:59:28.388Z,3.12
2022-07-30T10:02:04.109Z,3.51
2022-07-30T10:04:36.467Z,3.42
2022-07-30T10:07:07.011Z,3.37
2022-07-30T10:09:33.438Z,2.89
2022-07-30T10:12:04.244Z,2.99
2022-07-30T10:14:32.119Z,3.08
2022-07-30T10:16:58.832Z,2.98
2022-07-30T10:19:39.778Z,2.63
2022-07-30T10:22:08.128Z,3.10
2022-07-30T10:24:34.549Z,3.07
2022-07-30T10:27:01.141Z,3.01
2022-07-30T10:29:33.553Z,3.12
2022-07-30T10:32:00.540Z,3.20
2022-07-30T10:34:31.327Z,3.35
2022-07-30T10:37:01.705Z,3.22
2022-07-30T10:39:34.709Z,3.11
2022-07-30T10:42:01.319Z,3.07
2022-07-30T10:44:27.733Z,3.08
2022-07-30T10:46:54.505Z,3.02
2022-07-30T10:49:23.995Z,3.14
2022-07-30T10:51:50.758Z,3.13
2022-07-30T10:54:17.156Z,2.82
2022-07-30T10:56:45.326Z,2.93
2022-07-30T10:59:11.744Z,3.01
2022-07-30T11:01:41.423Z,3.06
2022-07-30T11:04:11.925Z,2.95
2022-07-30T11:06:38.329Z,2.95
2022-07-30T11:09:04.741Z,3.01
2022-07-30T11:12:02.255Z,3.01
2022-07-30T11:14:17.533Z,3.24
2022-07-30T11:16:46.834Z,3.07
2022-07-30T11:19:55.753Z,3.13
2022-07-30T11:21:59.901Z,3.05
2022-07-30T11:24:26.481Z,3.07
2022-07-30T11:26:52.877Z,2.99
2022-07-30T11:29:19.937Z,3.01
2022-07-30T11:32:00.946Z,3.09
2022-07-30T11:34:30.763Z,2.98
2022-07-30T11:36:57.510Z,3.12
2022-07-30T11:39:23.912Z,3.01
2022-07-30T11:42:00.054Z,3.23
2022-07-30T11:44:26.715Z,3.14
2022-07-30T11:46:53.134Z,2.97
2022-07-30T11:49:19.562Z,3.13
2022-07-30T11:51:46.043Z,3.39
2022-07-30T11:54:12.462Z,3.12
2022-07-30T11:56:38.861Z,3.30
2022-07-30T11:59:05.267Z,3.33
2022-07-30T12:01:31.674Z,3.09
2022-07-30T12:03:58.088Z,3.16
2022-07-30T12:06:24.504Z,3.08
2022-07-30T12:08:53.893Z,2.97
2022-07-30T12:11:21.569Z,3.22
2022-07-30T12:13:47.968Z,3.37
2022-07-30T12:16:14.377Z,3.02
2022-07-30T12:18:40.781Z,2.98
2022-07-30T12:21:07.184Z,2.96
2022-07-30T12:23:33.594Z,3.05
2022-07-30T12:26:00.012Z,3.17
2022-07-30T12:28:26.425Z,3.27
2022-07-30T12:30:52.831Z,2.95
2022-07-30T12:33:19.232Z,2.94
2022-07-30T12:35:45.641Z,2.97
2022-07-30T12:38:12.062Z,2.74
2022-07-30T12:40:38.464Z,2.94
2022-07-30T12:43:04.883Z,2.74
2022-07-30T12:45:52.085Z,2.80
2022-07-30T12:48:20.735Z,2.94
2022-07-30T12:50:48.536Z,2.95
2022-07-30T12:53:14.952Z,3.00
2022-07-30T12:55:41.351Z,3.00
2022-07-30T12:58:08.995Z,2.96
2022-07-30T13:00:35.647Z,2.88
2022-07-30T13:03:02.054Z,2.88
2022-07-30T13:05:28.559Z,2.98
2022-07-30T13:07:54.998Z,2.96
2022-07-30T13:10:21.414Z,3.06
2022-07-30T13:12:47.829Z,2.77
2022-07-30T13:15:14.330Z,2.89
2022-07-30T13:17:40.743Z,2.93
2022-07-30T13:20:07.191Z,2.81
2022-07-30T13:22:33.620Z,2.95
2022-07-30T13:25:00.030Z,2.95
2022-07-30T13:27:26.443Z,2.95
2022-07-30T13:29:52.854Z,3.18
2022-07-30T13:32:19.291Z,2.94
2022-07-30T13:34:45.692Z,2.87
2022-07-30T13:37:12.101Z,2.91
2022-07-30T13:39:38.508Z,2.94
2022-07-30T13:42:04.914Z,2.84
2022-07-30T13:44:31.327Z,3.03
2022-07-30T13:47:01.715Z,2.94
2022-07-30T13:49:28.626Z,2.65
2022-07-30T13:51:56.673Z,2.98
2022-07-30T13:54:23.113Z,3.03
2022-07-30T13:56:49.527Z,3.01
2022-07-30T13:59:15.962Z,3.07
2022-07-30T14:01:42.411Z,2.83
2022-07-30T14:04:08.879Z,3.00
2022-07-30T14:06:35.282Z,2.75
2022-07-30T14:09:01.784Z,2.96
2022-07-30T14:11:28.190Z,2.96
2022-07-30T14:13:54.582Z,2.78
2022-07-30T14:16:43.674Z,2.89
2022-07-30T14:19:07.431Z,2.88
2022-07-30T14:21:33.840Z,3.07
2022-07-30T14:24:00.235Z,3.15
2022-07-30T14:26:36.302Z,2.90
2022-07-30T14:29:03.085Z,2.96
2022-07-30T14:31:29.587Z,3.02
2022-07-30T14:33:55.984Z,2.92
2022-07-30T14:36:22.386Z,3.06
2022-07-30T14:38:48.891Z,3.00
2022-07-30T14:41:15.302Z,2.96
2022-07-30T14:43:41.715Z,3.01
2022-07-30T14:46:08.132Z,2.84
2022-07-30T14:48:34.537Z,2.76
2022-07-30T14:51:15.979Z,2.77
2022-07-30T14:53:47.292Z,2.79
2022-07-30T14:56:13.838Z,2.90
2022-07-30T14:58:40.642Z,2.86
2022-07-30T15:01:16.025Z,2.83
2022-07-30T15:03:43.172Z,2.85
2022-07-30T15:06:09.593Z,2.87
2022-07-30T15:08:36.014Z,2.86
2022-07-30T15:11:02.697Z,3.05
2022-07-30T15:13:32.468Z,3.17
2022-07-30T15:15:58.944Z,3.44
2022-07-30T15:18:25.361Z,6.40
2022-07-30T15:20:51.761Z,5.73
2022-07-30T15:23:18.155Z,7.32
2022-07-30T15:25:44.573Z,5.67
2022-07-30T15:28:10.967Z,6.64
2022-07-30T15:30:37.373Z,6.16
2022-07-30T15:33:03.776Z,5.09
2022-07-30T15:35:30.211Z,5.30
2022-07-30T15:37:58.363Z,5.63
2022-07-30T15:40:24.771Z,5.63
2022-07-30T15:42:51.181Z,5.58
2022-07-30T15:45:18.408Z,5.41
2022-07-30T15:47:45.171Z,5.27
2022-07-30T15:50:11.578Z,5.14
2022-07-30T15:52:38.006Z,4.94
2022-07-30T15:55:04.415Z,4.88
2022-07-30T15:57:30.816Z,4.72
2022-07-30T15:59:57.281Z,4.61
2022-07-30T16:02:23.745Z,4.67
2022-07-30T16:04:50.146Z,4.24
2022-07-30T16:07:19.160Z,3.93
2022-07-30T16:09:45.565Z,3.20
2022-07-30T16:12:11.989Z,3.60
2022-07-30T16:14:38.396Z,3.53
2022-07-30T16:17:04.819Z,3.43
2022-07-30T16:19:31.237Z,3.40
2022-07-30T16:21:57.638Z,3.49
2022-07-30T16:24:24.040Z,3.35
2022-07-30T16:26:50.454Z,3.54
2022-07-30T16:29:16.862Z,3.30
2022-07-30T16:31:43.272Z,3.22
2022-07-30T16:34:09.678Z,3.23
2022-07-30T16:36:36.079Z,3.37
2022-07-30T16:39:02.488Z,3.31
2022-07-30T16:41:28.894Z,3.44
2022-07-30T16:43:55.312Z,2.99
2022-07-30T16:46:21.734Z,3.12
2022-07-30T16:48:50.493Z,3.04
2022-07-30T16:51:17.158Z,2.96
2022-07-30T16:53:43.565Z,3.18
2022-07-30T16:56:09.965Z,3.26
2022-07-30T16:58:36.390Z,3.24
2022-07-30T17:01:02.839Z,3.41
2022-07-30T17:03:29.274Z,3.17
2022-07-30T17:05:55.695Z,3.26
2022-07-30T17:08:24.822Z,2.86
2022-07-30T17:10:51.741Z,3.10
2022-07-30T17:13:18.146Z,3.25
2022-07-30T17:15:45.542Z,3.10
2022-07-30T17:18:13.421Z,3.22
2022-07-30T17:20:39.852Z,3.27
2022-07-30T17:23:06.252Z,3.19
2022-07-30T17:25:32.652Z,3.12
2022-07-30T17:27:59.055Z,3.13
2022-07-30T17:30:25.465Z,3.25
2022-07-30T17:32:51.881Z,3.15
2022-07-30T17:35:18.270Z,3.25
2022-07-30T17:37:44.678Z,3.47
2022-07-30T17:40:29.868Z,3.61
2022-07-30T17:42:57.483Z,3.16
2022-07-30T17:45:23.901Z,3.34
2022-07-30T17:47:50.309Z,3.44
2022-07-30T17:50:16.734Z,3.30
2022-07-30T17:52:43.144Z,3.40
2022-07-30T17:55:09.550Z,3.42
2022-07-30T17:57:36.050Z,3.42
2022-07-30T18:00:02.464Z,3.56
2022-07-30T18:02:29.289Z,3.33
2022-07-30T18:04:56.498Z,3.24
2022-07-30T18:07:23.353Z,3.04
2022-07-30T18:09:49.793Z,3.28
2022-07-30T18:12:18.951Z,3.40
2022-07-30T18:14:45.353Z,3.08
2022-07-30T18:17:14.402Z,3.07
2022-07-30T18:19:41.106Z,3.39
2022-07-30T18:22:07.543Z,2.96
2022-07-30T18:24:33.968Z,3.08
2022-07-30T18:27:06.999Z,3.30
2022-07-30T18:29:33.418Z,3.16
2022-07-30T18:32:00.217Z,3.25
2022-07-30T18:34:26.890Z,3.05
2022-07-30T18:36:53.308Z,3.20
2022-07-30T18:39:19.751Z,3.18
2022-07-30T18:41:46.242Z,3.40
2022-07-30T18:44:12.650Z,3.28
2022-07-30T18:46:39.058Z,3.10
2022-07-30T18:49:21.205Z,3.47
2022-07-30T18:51:51.862Z,3.08
2022-07-30T18:54:18.568Z,3.28
2022-07-30T18:56:44.995Z,3.13
2022-07-30T18:59:11.430Z,3.19
2022-07-30T19:01:37.914Z,3.35
2022-07-30T19:04:05.501Z,3.35
2022-07-30T19:06:31.935Z,3.62
2022-07-30T19:08:58.386Z,3.62
2022-07-30T19:11:24.784Z,3.67
2022-07-30T19:13:51.185Z,4.26
2022-07-30T19:16:17.596Z,7.15
2022-07-30T19:18:44.007Z,7.22
2022-07-30T19:21:14.040Z,5.33
2022-07-30T19:23:40.720Z,5.13
2022-07-30T19:26:07.119Z,4.67
2022-07-30T19:28:33.518Z,4.00
2022-07-30T19:30:59.918Z,4.21
2022-07-30T19:33:26.333Z,4.19
2022-07-30T19:35:52.767Z,3.87
2022-07-30T19:38:21.814Z,4.05
2022-07-30T19:40:50.123Z,3.68
2022-07-30T19:43:16.537Z,3.81
2022-07-30T19:45:47.567Z,3.70
2022-07-30T19:48:31.736Z,3.86
2022-07-30T19:50:58.953Z,3.73
2022-07-30T19:53:25.378Z,3.48
2022-07-30T19:55:51.775Z,3.59
2022-07-30T19:58:18.765Z,3.53
2022-07-30T20:00:49.522Z,3.28
2022-07-30T20:03:16.308Z,3.28
2022-07-30T20:05:54.907Z,3.18
2022-07-30T20:08:25.956Z,3.05
2022-07-30T20:10:52.375Z,3.28
2022-07-30T20:13:18.785Z,3.41
2022-07-30T20:15:45.994Z,3.29
2022-07-30T20:18:12.714Z,3.49
2022-07-30T20:20:41.112Z,3.23
2022-07-30T20:23:08.003Z,3.17
2022-07-30T20:25:37.145Z,3.39
2022-07-30T20:28:03.852Z,2.93
2022-07-30T20:30:31.011Z,3.22
2022-07-30T20:32:57.435Z,3.01
2022-07-30T20:35:24.748Z,3.17
2022-07-30T20:37:54.799Z,3.04
2022-07-30T20:40:38.501Z,3.26
2022-07-30T20:43:06.199Z,2.90
2022-07-30T20:45:40.351Z,3.00
2022-07-30T20:48:07.160Z,3.29
2022-07-30T20:50:43.557Z,3.44
2022-07-30T20:53:10.704Z,3.00
2022-07-30T20:55:40.326Z,3.02
2022-07-30T20:58:16.556Z,3.00
2022-07-30T21:00:49.665Z,3.22
2022-07-30T21:03:16.436Z,3.20
2022-07-30T21:05:42.872Z,2.97
2022-07-30T21:08:09.277Z,3.08
2022-07-30T21:10:39.196Z,3.31
2022-07-30T21:13:07.625Z,3.25
2022-07-30T21:15:34.180Z,3.16
2022-07-30T21:18:02.130Z,3.20
2022-07-30T21:20:29.416Z,2.98
2022-07-30T21:22:55.832Z,3.16
2022-07-30T21:25:23.533Z,3.18
2022-07-30T21:27:59.272Z,2.94
2022-07-30T21:30:26.253Z,3.16
2022-07-30T21:32:53.130Z,3.15
2022-07-30T21:35:19.788Z,3.36
2022-07-30T21:37:46.218Z,3.60
2022-07-30T21:40:13.147Z,3.16
2022-07-30T21:42:48.263Z,3.30
2022-07-30T21:45:14.874Z,3.26
2022-07-30T21:47:41.364Z,3.10
2022-07-30T21:50:14.241Z,2.99
2022-07-30T21:52:42.636Z,3.28
2022-07-30T21:55:09.054Z,3.34
2022-07-30T21:57:39.800Z,3.07
2022-07-30T22:00:06.217Z,3.19
2022-07-30T22:02:35.531Z,3.02
2022-07-30T22:05:02.794Z,3.34
2022-07-30T22:07:29.187Z,3.26
2022-07-30T22:09:55.598Z,3.37
2022-07-30T22:12:22.007Z,3.44
2022-07-30T22:14:55.220Z,3.12
2022-07-30T22:17:23.786Z,3.18
2022-07-30T22:20:03.545Z,3.30
2022-07-30T22:22:35.515Z,3.37
2022-07-30T22:25:02.488Z,3.17
2022-07-30T22:27:39.765Z,3.01
2022-07-30T22:30:19.629Z,2.90
2022-07-30T22:32:46.735Z,3.18
2022-07-30T22:35:16.447Z,3.06
2022-07-30T22:37:42.894Z,3.13
2022-07-30T22:40:12.431Z,2.98
2022-07-30T22:42:49.884Z,3.20
2022-07-30T22:45:36.026Z,3.13
2022-07-30T22:48:14.345Z,3.18
2022-07-30T22:50:41.049Z,3.05
2022-07-30T22:53:23.326Z,3.18
2022-07-30T22:55:54.697Z,2.97
2022-07-30T22:58:22.045Z,3.22
2022-07-30T23:00:52.882Z,3.19
2022-07-30T23:03:19.370Z,3.18
2022-07-30T23:05:56.323Z,3.29
2022-07-30T23:08:29.995Z,3.30
2022-07-30T23:10:56.905Z,3.23
2022-07-30T23:13:23.313Z,3.52
2022-07-30T23:15:49.719Z,3.32
2022-07-30T23:18:16.141Z,3.14
2022-07-30T23:20:42.554Z,3.29
2022-07-30T23:23:08.952Z,3.33
2022-07-30T23:25:39.017Z,3.47
2022-07-30T23:28:05.648Z,3.25
2022-07-30T23:30:34.011Z,3.38
2022-07-30T23:33:00.854Z,3.52
2022-07-30T23:35:27.244Z,3.47
2022-07-30T23:37:53.647Z,3.41
2022-07-30T23:40:20.070Z,3.03
2022-07-30T23:42:46.478Z,3.34
2022-07-30T23:45:12.878Z,3.39
2022-07-30T23:47:58.018Z,3.35
2022-07-30T23:50:25.688Z,3.30
2022-07-30T23:52:52.107Z,3.28
2022-07-30T23:55:18.534Z,3.44
2022-07-30T23:57:44.950Z,3.22
